createdAt,value
2023-03-21T00:00:57.895Z,8.93
2023-03-21T00:03:28.673Z,8.40
2023-03-21T00:05:57.809Z,9.07
2023-03-21T00:08:28.095Z,8.13
2023-03-21T00:10:58.588Z,8.43
2023-03-21T00:13:32.463Z,8.97
2023-03-21T00:16:11.801Z,9.57
2023-03-21T00:18:48.682Z,8.13
2023-03-21T00:21:43.957Z,9.03
2023-03-21T00:24:08.963Z,9.13
2023-03-21T00:26:38.480Z,8.63
2023-03-21T00:29:08.951Z,9.03
2023-03-21T00:31:38.111Z,9.10
2023-03-21T00:34:07.233Z,8.77
2023-03-21T00:36:36.303Z,9.13
2023-03-21T00:39:09.579Z,9.77
2023-03-21T00:41:43.015Z,10.33
2023-03-21T00:44:15.687Z,9.80
2023-03-21T00:47:00.767Z,10.20
2023-03-21T00:49:38.452Z,8.97
2023-03-21T00:52:17.178Z,8.93
2023-03-21T00:54:53.843Z,8.67
2023-03-21T00:57:37.580Z,10.30
2023-03-21T01:00:12.014Z,9.47
2023-03-21T01:03:02.719Z,9.47
2023-03-21T01:05:58.232Z,10.87
2023-03-21T01:08:33.184Z,10.40
2023-03-21T01:11:14.656Z,10.33
2023-03-21T01:13:53.739Z,10.23
2023-03-21T01:16:28.479Z,11.17
2023-03-21T01:18:57.749Z,10.40
2023-03-21T01:21:27.639Z,11.30
2023-03-21T01:23:56.782Z,9.83
2023-03-21T01:26:26.394Z,10.67
2023-03-21T01:28:55.422Z,11.10
2023-03-21T01:31:24.586Z,11.33
2023-03-21T01:33:55.086Z,11.10
2023-03-21T01:36:26.487Z,11.67
2023-03-21T01:39:00.360Z,11.93
2023-03-21T01:41:46.969Z,11.87
2023-03-21T01:44:28.024Z,11.17
2023-03-21T01:47:13.401Z,10.93
2023-03-21T01:49:53.499Z,11.00
2023-03-21T01:52:43.348Z,12.53
2023-03-21T01:55:20.114Z,11.00
2023-03-21T01:58:14.092Z,11.50
2023-03-21T02:01:06.605Z,12.03
2023-03-21T02:03:51.288Z,13.20
2023-03-21T02:06:37.352Z,11.80
2023-03-21T02:09:23.270Z,12.00
2023-03-21T02:11:53.042Z,13.43
2023-03-21T02:14:28.940Z,13.37
2023-03-21T02:17:15.694Z,12.63
2023-03-21T02:20:21.975Z,12.00
2023-03-21T02:23:23.034Z,12.97
2023-03-21T02:26:33.363Z,13.27
2023-03-21T02:29:27.081Z,13.53
2023-03-21T02:32:20.304Z,12.07
2023-03-21T02:35:14.882Z,12.60
2023-03-21T02:37:55.208Z,13.73
2023-03-21T02:40:35.509Z,14.30
2023-03-21T02:43:22.160Z,12.57
2023-03-21T02:45:55.688Z,14.00
2023-03-21T02:48:44.390Z,14.80
2023-03-21T02:51:23.065Z,12.83
2023-03-21T02:54:24.534Z,14.93
2023-03-21T02:56:51.540Z,13.73
2023-03-21T02:59:23.798Z,14.03
2023-03-21T03:01:53.814Z,14.10
2023-03-21T03:04:24.782Z,14.30
2023-03-21T03:07:14.289Z,13.80
2023-03-21T03:10:09.308Z,14.07
2023-03-21T03:12:46.608Z,12.73
2023-03-21T03:15:28.294Z,13.67
2023-03-21T03:18:07.556Z,13.93
2023-03-21T03:20:49.832Z,14.03
2023-03-21T03:23:31.003Z,12.97
2023-03-21T03:26:06.481Z,14.73
2023-03-21T03:28:39.984Z,15.03
2023-03-21T03:31:21.873Z,14.60
2023-03-21T03:33:59.377Z,14.23
2023-03-21T03:36:36.893Z,14.30
2023-03-21T03:39:13.271Z,14.13
2023-03-21T03:44:43.470Z,15.00
2023-03-21T03:47:31.435Z,15.13
2023-03-21T03:50:09.867Z,15.83
2023-03-21T03:52:53.625Z,16.40
2023-03-21T03:55:28.126Z,15.33
2023-03-21T03:58:04.759Z,15.90
2023-03-21T04:00:36.314Z,17.23
2023-03-21T04:03:07.275Z,16.37
2023-03-21T04:05:36.529Z,16.53
2023-03-21T04:08:06.518Z,16.03
2023-03-21T04:10:42.026Z,15.30
2023-03-21T04:13:13.520Z,16.77
2023-03-21T04:16:03.018Z,16.07
2023-03-21T04:18:32.524Z,15.20
2023-03-21T04:21:02.008Z,16.83
2023-03-21T04:23:33.181Z,14.97
2023-03-21T04:26:02.228Z,16.27
2023-03-21T04:28:39.797Z,15.60
2023-03-21T04:31:30.965Z,14.87
2023-03-21T04:34:09.764Z,14.97
2023-03-21T04:36:42.944Z,17.30
2023-03-21T04:39:14.128Z,16.30
2023-03-21T04:41:47.096Z,16.87
2023-03-21T04:44:18.817Z,16.13
2023-03-21T04:46:48.772Z,16.63
2023-03-21T04:49:18.906Z,16.67
2023-03-21T04:51:47.959Z,18.03
2023-03-21T04:54:21.508Z,19.10
2023-03-21T04:56:51.936Z,19.27
2023-03-21T04:59:22.405Z,19.97
2023-03-21T05:01:52.263Z,19.73
2023-03-21T05:04:21.682Z,19.53
2023-03-21T05:06:50.795Z,19.20
2023-03-21T05:09:20.086Z,21.07
2023-03-21T05:11:49.523Z,21.63
2023-03-21T05:14:23.890Z,20.80
2023-03-21T05:16:56.131Z,20.57
2023-03-21T05:19:35.086Z,20.90
2023-03-21T05:22:08.202Z,19.30
2023-03-21T05:24:39.742Z,20.57
2023-03-21T05:27:14.221Z,21.53
2023-03-21T05:29:49.309Z,18.70
2023-03-21T05:32:18.683Z,21.03
2023-03-21T05:34:47.812Z,19.90
2023-03-21T05:37:16.968Z,20.13
2023-03-21T05:39:50.038Z,20.73
2023-03-21T05:42:25.854Z,22.13
2023-03-21T05:44:56.806Z,21.17
2023-03-21T05:47:31.219Z,19.40
2023-03-21T05:50:02.375Z,19.67
2023-03-21T05:52:32.426Z,20.47
2023-03-21T05:55:03.407Z,23.33
2023-03-21T05:57:39.062Z,21.37
2023-03-21T06:00:13.717Z,20.53
2023-03-21T06:02:46.198Z,21.57
2023-03-21T06:05:47.554Z,21.77
2023-03-21T06:08:22.841Z,21.47
2023-03-21T06:10:52.664Z,21.00
2023-03-21T06:13:21.968Z,19.17
2023-03-21T06:15:52.611Z,23.37
2023-03-21T06:18:25.974Z,21.70
2023-03-21T06:21:05.735Z,22.37
2023-03-21T06:23:34.866Z,21.53
2023-03-21T06:26:04.146Z,22.57
2023-03-21T06:28:33.399Z,20.43
2023-03-21T06:31:04.132Z,21.70
2023-03-21T06:33:35.719Z,23.40
2023-03-21T06:36:05.112Z,23.43
2023-03-21T06:38:37.846Z,21.60
2023-03-21T06:41:08.709Z,22.60
2023-03-21T06:43:43.607Z,22.77
2023-03-21T06:46:14.363Z,22.37
2023-03-21T06:48:45.321Z,21.57
2023-03-21T06:51:15.593Z,21.67
2023-03-21T06:53:56.973Z,22.73
2023-03-21T06:56:42.577Z,23.43
2023-03-21T06:59:14.495Z,26.00
2023-03-21T07:01:57.768Z,21.70
2023-03-21T07:04:28.209Z,21.60
2023-03-21T07:06:59.672Z,22.60
2023-03-21T07:09:30.044Z,23.93
2023-03-21T07:12:04.889Z,23.83
2023-03-21T07:14:51.965Z,23.53
2023-03-21T07:17:22.403Z,23.97
2023-03-21T07:19:52.017Z,20.63
2023-03-21T07:22:22.100Z,23.97
2023-03-21T07:25:03.980Z,23.37
2023-03-21T07:27:35.927Z,27.30
2023-03-21T07:30:05.827Z,24.37
2023-03-21T07:32:37.889Z,24.83
2023-03-21T07:35:08.900Z,25.80
2023-03-21T07:37:38.347Z,23.83
2023-03-21T07:40:10.773Z,26.40
2023-03-21T07:42:42.192Z,27.90
2023-03-21T07:45:16.440Z,24.37
2023-03-21T07:47:49.015Z,26.20
2023-03-21T07:50:18.797Z,28.10
2023-03-21T07:52:48.175Z,28.10
2023-03-21T07:55:18.658Z,24.73
2023-03-21T07:57:51.539Z,23.00
2023-03-21T08:00:23.685Z,25.70
2023-03-21T08:02:58.533Z,26.90
2023-03-21T08:05:29.873Z,25.70
2023-03-21T08:07:59.088Z,26.13
2023-03-21T08:10:29.146Z,27.53
2023-03-21T08:12:58.438Z,27.17
2023-03-21T08:15:27.622Z,22.80
2023-03-21T08:18:00.299Z,26.73
2023-03-21T08:20:29.753Z,25.40
2023-03-21T08:22:59.140Z,27.90
2023-03-21T08:25:28.283Z,27.07
2023-03-21T08:27:57.377Z,27.37
2023-03-21T08:30:29.569Z,27.97
2023-03-21T08:33:01.880Z,27.57
2023-03-21T08:35:32.524Z,29.33
2023-03-21T08:38:03.215Z,24.50
2023-03-21T08:40:32.586Z,27.93
2023-03-21T08:43:01.938Z,25.17
2023-03-21T08:45:31.145Z,25.23
2023-03-21T08:48:01.611Z,23.27
2023-03-21T08:50:31.754Z,24.63
2023-03-21T08:53:00.813Z,22.27
2023-03-21T08:55:30.398Z,23.13
2023-03-21T08:57:59.513Z,25.87
2023-03-21T09:00:28.876Z,20.57
2023-03-21T09:02:59.772Z,21.07
2023-03-21T09:05:28.862Z,21.00
2023-03-21T09:07:58.178Z,22.00
2023-03-21T09:10:27.211Z,20.30
2023-03-21T09:12:57.107Z,20.30
2023-03-21T09:15:29.793Z,18.87
2023-03-21T09:18:12.971Z,18.83
2023-03-21T09:20:43.066Z,19.23
2023-03-21T09:23:13.388Z,21.40
2023-03-21T09:25:42.982Z,20.60
2023-03-21T09:28:13.102Z,18.70
2023-03-21T09:30:42.182Z,18.30
2023-03-21T09:33:13.145Z,18.17
2023-03-21T09:35:42.738Z,20.00
2023-03-21T09:38:11.875Z,19.40
2023-03-21T09:41:00.903Z,20.87
2023-03-21T09:43:43.790Z,17.70
2023-03-21T09:46:20.529Z,21.33
2023-03-21T09:48:58.573Z,18.90
2023-03-21T09:51:32.667Z,22.37
2023-03-21T09:54:07.409Z,18.33
2023-03-21T09:56:38.479Z,21.23
2023-03-21T09:59:11.511Z,18.67
2023-03-21T10:01:45.469Z,19.60
2023-03-21T10:04:18.859Z,20.07
2023-03-21T10:06:57.171Z,20.13
2023-03-21T10:09:28.178Z,20.03
2023-03-21T10:12:03.061Z,20.70
2023-03-21T10:14:36.354Z,19.80
2023-03-21T10:17:22.991Z,17.73
2023-03-21T10:20:11.611Z,18.03
2023-03-21T10:22:41.449Z,18.07
2023-03-21T10:25:15.754Z,20.63
2023-03-21T10:27:45.273Z,17.00
2023-03-21T10:30:27.295Z,15.97
2023-03-21T10:32:59.682Z,17.50
2023-03-21T10:35:32.621Z,16.33
2023-03-21T10:38:02.317Z,16.57
2023-03-21T10:40:33.041Z,16.90
2023-03-21T10:43:20.102Z,15.77
2023-03-21T10:45:49.883Z,15.43
2023-03-21T10:48:19.300Z,16.37
2023-03-21T10:50:52.466Z,13.73
2023-03-21T10:53:24.403Z,14.90
2023-03-21T10:55:56.688Z,15.57
2023-03-21T10:58:30.224Z,13.33
2023-03-21T11:01:02.997Z,12.93
2023-03-21T11:03:34.861Z,13.23
2023-03-21T11:06:09.258Z,13.60
2023-03-21T11:08:44.994Z,14.03
2023-03-21T11:11:22.087Z,13.73
2023-03-21T11:14:01.107Z,13.43
2023-03-21T11:16:38.479Z,13.77
2023-03-21T11:19:17.632Z,13.37
2023-03-21T11:21:48.284Z,13.63
2023-03-21T11:24:19.981Z,12.47
2023-03-21T11:26:51.336Z,13.93
2023-03-21T11:29:30.249Z,13.83
2023-03-21T11:32:02.488Z,12.53
2023-03-21T11:34:39.953Z,13.07
2023-03-21T11:37:21.059Z,13.40
2023-03-21T11:39:55.311Z,12.37
2023-03-21T11:42:30.256Z,11.47
2023-03-21T11:45:03.286Z,12.27
2023-03-21T11:47:32.606Z,11.90
2023-03-21T11:50:05.369Z,12.70
2023-03-21T11:52:44.878Z,12.17
2023-03-21T11:55:37.195Z,11.77
2023-03-21T11:58:33.903Z,11.90
2023-03-21T12:01:14.158Z,11.70
2023-03-21T12:03:58.222Z,12.37
2023-03-21T12:06:33.925Z,11.53
2023-03-21T12:09:27.268Z,11.53
2023-03-21T12:12:06.005Z,11.17
2023-03-21T12:14:44.886Z,11.17
2023-03-21T12:17:25.942Z,11.40
2023-03-21T12:20:15.050Z,13.07
2023-03-21T12:22:57.998Z,11.87
2023-03-21T12:25:32.770Z,13.87
2023-03-21T12:28:15.254Z,12.97
2023-03-21T12:30:56.667Z,12.63
2023-03-21T12:33:42.106Z,13.47
2023-03-21T12:36:39.271Z,12.07
2023-03-21T12:39:20.594Z,14.30
2023-03-21T12:42:04.167Z,13.37
2023-03-21T12:44:36.974Z,12.97
2023-03-21T12:47:11.992Z,13.20
2023-03-21T12:49:46.823Z,11.67
2023-03-21T12:52:23.567Z,12.53
2023-03-21T12:54:57.711Z,12.17
2023-03-21T12:57:33.660Z,9.47
2023-03-21T13:00:10.691Z,11.33
2023-03-21T13:02:44.567Z,12.03
2023-03-21T13:05:21.332Z,11.77
2023-03-21T13:07:54.771Z,12.40
2023-03-21T13:10:24.273Z,9.57
2023-03-21T13:13:05.183Z,8.80
2023-03-21T13:16:00.699Z,9.53
2023-03-21T13:18:41.737Z,8.63
2023-03-21T13:21:17.700Z,8.70
2023-03-21T13:24:02.185Z,8.73
2023-03-21T13:26:37.878Z,7.83
2023-03-21T13:29:23.389Z,9.17
2023-03-21T13:31:57.320Z,7.07
2023-03-21T13:34:28.078Z,7.63
2023-03-21T13:36:59.037Z,7.37
2023-03-21T13:39:31.144Z,8.13
2023-03-21T13:42:06.496Z,8.77
2023-03-21T13:44:44.807Z,8.57
2023-03-21T13:47:32.644Z,8.27
2023-03-21T13:50:30.887Z,8.37
2023-03-21T13:53:33.546Z,8.43
2023-03-21T13:56:23.939Z,8.00
2023-03-21T13:59:00.730Z,7.27
2023-03-21T14:01:37.865Z,7.37
2023-03-21T14:04:16.720Z,8.07
2023-03-21T14:06:50.843Z,6.87
2023-03-21T14:09:26.681Z,6.87
2023-03-21T14:12:03.940Z,7.63
2023-03-21T14:14:41.114Z,7.57
2023-03-21T14:17:24.831Z,7.80
2023-03-21T14:19:55.510Z,7.67
2023-03-21T14:22:25.027Z,8.07
2023-03-21T14:24:58.496Z,7.23
2023-03-21T14:27:31.691Z,7.97
2023-03-21T14:30:02.094Z,7.50
2023-03-21T14:32:32.855Z,6.80
2023-03-21T14:35:02.786Z,7.13
2023-03-21T14:37:34.363Z,6.60
2023-03-21T14:40:18.002Z,7.47
2023-03-21T14:42:49.101Z,7.33
2023-03-21T14:45:21.064Z,6.97
2023-03-21T14:48:00.045Z,6.90
2023-03-21T14:50:37.227Z,6.77
2023-03-21T14:53:07.931Z,7.03
2023-03-21T14:55:45.301Z,6.63
2023-03-21T14:58:16.965Z,7.50
2023-03-21T15:00:48.978Z,7.87
2023-03-21T15:03:21.475Z,6.67
2023-03-21T15:05:50.773Z,7.03
2023-03-21T15:08:22.014Z,7.87
2023-03-21T15:11:06.880Z,7.10
2023-03-21T15:13:40.922Z,6.67
2023-03-21T15:16:12.377Z,7.40
2023-03-21T15:18:44.504Z,6.90
2023-03-21T15:21:18.455Z,7.67
2023-03-21T15:23:49.878Z,7.10
2023-03-21T15:26:22.115Z,6.17
2023-03-21T15:28:56.432Z,7.20
2023-03-21T15:31:29.746Z,6.07
2023-03-21T15:34:00.366Z,7.07
2023-03-21T15:36:36.405Z,6.87
2023-03-21T15:39:08.823Z,7.30
2023-03-21T15:41:38.036Z,5.97
2023-03-21T15:44:14.447Z,7.10
2023-03-21T15:46:48.240Z,6.33
2023-03-21T15:49:27.230Z,6.87
2023-03-21T15:52:02.202Z,6.27
2023-03-21T15:54:34.300Z,6.73
2023-03-21T15:57:09.422Z,6.73
2023-03-21T15:59:42.737Z,7.60
2023-03-21T16:02:20.154Z,6.77
2023-03-21T16:05:18.768Z,6.60
2023-03-21T16:07:48.643Z,6.30
2023-03-21T16:10:28.557Z,6.77
2023-03-21T16:12:57.707Z,7.17
2023-03-21T16:15:27.973Z,6.30
2023-03-21T16:18:00.552Z,6.40
2023-03-21T16:20:36.807Z,6.00
2023-03-21T16:23:06.300Z,6.27
2023-03-21T16:25:35.728Z,6.47
2023-03-21T16:28:05.000Z,7.30
2023-03-21T16:30:34.015Z,7.03
2023-03-21T16:33:03.420Z,6.23
2023-03-21T16:35:33.849Z,6.40
2023-03-21T16:38:03.323Z,6.33
2023-03-21T16:40:36.756Z,6.40
2023-03-21T16:43:06.551Z,6.13
2023-03-21T16:45:35.852Z,6.07
2023-03-21T16:48:05.252Z,5.83
2023-03-21T16:50:41.165Z,7.00
2023-03-21T16:53:10.471Z,6.07
2023-03-21T16:55:40.008Z,5.43
2023-03-21T16:58:09.142Z,5.90
2023-03-21T17:00:40.321Z,5.23
2023-03-21T17:03:18.857Z,5.37
2023-03-21T17:05:49.440Z,5.67
2023-03-21T17:08:20.832Z,7.00
2023-03-21T17:10:49.891Z,6.10
2023-03-21T17:13:18.908Z,6.23
2023-03-21T17:15:48.048Z,5.90
2023-03-21T17:18:17.059Z,6.33
2023-03-21T17:20:48.848Z,5.87
2023-03-21T17:23:17.880Z,6.27
2023-03-21T17:25:47.154Z,5.80
2023-03-21T17:28:16.571Z,6.27
2023-03-21T17:30:45.775Z,6.27
2023-03-21T17:33:15.654Z,7.00
2023-03-21T17:35:45.326Z,6.53
2023-03-21T17:38:18.240Z,7.10
2023-03-21T17:40:48.982Z,6.70
2023-03-21T17:43:20.877Z,6.10
2023-03-21T17:45:50.056Z,7.20
2023-03-21T17:48:19.165Z,7.10
2023-03-21T17:50:48.341Z,7.40
2023-03-21T17:53:18.692Z,7.00
2023-03-21T17:55:47.733Z,7.63
2023-03-21T17:58:17.708Z,6.90
2023-03-21T18:00:47.445Z,8.37
2023-03-21T18:03:18.516Z,7.93
2023-03-21T18:05:48.351Z,7.97
2023-03-21T18:08:18.817Z,8.33
2023-03-21T18:10:47.895Z,8.60
2023-03-21T18:13:17.032Z,8.57
2023-03-21T18:15:48.354Z,8.23
2023-03-21T18:18:18.102Z,8.40
2023-03-21T18:20:52.606Z,7.97
2023-03-21T18:23:24.373Z,8.80
2023-03-21T18:25:54.458Z,8.73
2023-03-21T18:28:23.594Z,9.67
2023-03-21T18:31:08.554Z,9.63
2023-03-21T18:33:40.365Z,11.03
2023-03-21T18:36:10.754Z,9.70
2023-03-21T18:38:41.206Z,10.23
2023-03-21T18:41:11.402Z,10.53
2023-03-21T18:46:30.433Z,9.87
2023-03-21T18:49:19.871Z,9.67
2023-03-21T18:51:48.551Z,11.70
2023-03-21T18:54:18.919Z,9.90
2023-03-21T18:57:33.800Z,10.90
2023-03-21T18:59:41.068Z,9.83
2023-03-21T19:02:12.209Z,11.53
2023-03-21T19:04:41.460Z,11.00
2023-03-21T19:07:11.059Z,10.97
2023-03-21T19:12:31.004Z,11.70
2023-03-21T19:15:00.042Z,11.60
2023-03-21T19:20:18.633Z,12.30
2023-03-21T19:22:47.730Z,10.50
2023-03-21T19:25:18.717Z,11.50
2023-03-21T19:27:47.763Z,13.83
2023-03-21T19:30:17.379Z,11.53
2023-03-21T19:32:47.051Z,11.83
2023-03-21T19:35:16.295Z,12.07
2023-03-21T19:37:46.531Z,11.70
2023-03-21T19:40:19.803Z,11.87
2023-03-21T19:42:48.976Z,12.00
2023-03-21T19:45:18.144Z,11.47
2023-03-21T19:47:47.299Z,12.20
2023-03-21T19:53:05.739Z,12.30
2023-03-21T19:55:36.408Z,12.00
2023-03-21T19:58:06.021Z,13.00
2023-03-21T20:00:35.735Z,13.17
2023-03-21T20:03:08.487Z,11.73
2023-03-21T20:05:37.674Z,13.13
2023-03-21T20:08:10.707Z,12.47
2023-03-21T20:10:41.577Z,12.37
2023-03-21T20:13:10.634Z,12.80
2023-03-21T20:15:47.677Z,14.30
2023-03-21T20:18:17.144Z,13.27
2023-03-21T20:20:46.355Z,12.37
2023-03-21T20:23:16.148Z,10.73
2023-03-21T20:25:48.076Z,12.23
2023-03-21T20:28:25.095Z,13.03
2023-03-21T20:30:59.356Z,10.27
2023-03-21T20:33:29.022Z,11.53
2023-03-21T20:38:49.458Z,11.23
2023-03-21T20:41:20.736Z,11.40
2023-03-21T20:46:39.079Z,11.57
2023-03-21T20:49:08.163Z,10.93
2023-03-21T20:54:26.396Z,10.60
2023-03-21T20:56:58.068Z,11.13
2023-03-21T20:59:28.280Z,10.57
2023-03-21T21:01:59.060Z,9.50
2023-03-21T21:04:48.112Z,10.13
2023-03-21T21:07:21.808Z,10.43
2023-03-21T21:09:51.565Z,10.10
2023-03-21T21:12:27.353Z,9.03
2023-03-21T21:14:56.541Z,9.27
2023-03-21T21:18:03.987Z,9.77
2023-03-21T21:20:17.407Z,9.57
2023-03-21T21:22:59.065Z,8.47
2023-03-21T21:25:32.180Z,8.77
2023-03-21T21:28:03.048Z,9.50
2023-03-21T21:30:34.280Z,9.43
2023-03-21T21:33:03.382Z,8.90
2023-03-21T21:35:33.440Z,8.90
2023-03-21T21:38:02.539Z,9.77
2023-03-21T21:40:31.701Z,10.40
2023-03-21T21:43:03.656Z,9.07
2023-03-21T21:45:32.920Z,9.80
2023-03-21T21:48:02.182Z,9.83
2023-03-21T21:50:31.220Z,9.50
2023-03-21T21:53:03.912Z,9.53
2023-03-21T21:55:33.681Z,9.20
2023-03-21T21:58:05.570Z,9.17
2023-03-21T22:00:35.454Z,8.63
2023-03-21T22:03:04.622Z,8.40
2023-03-21T22:05:33.995Z,8.13
2023-03-21T22:08:03.287Z,8.87
2023-03-21T22:10:35.638Z,8.60
2023-03-21T22:13:06.356Z,8.07
2023-03-21T22:15:35.494Z,8.93
2023-03-21T22:18:04.684Z,8.63
2023-03-21T22:20:34.655Z,8.53
2023-03-21T22:23:03.693Z,8.77
2023-03-21T22:25:34.059Z,9.37
2023-03-21T22:28:03.113Z,9.53
2023-03-21T22:30:33.741Z,9.50
2023-03-21T22:33:09.619Z,9.87
2023-03-21T22:35:39.008Z,9.63
2023-03-21T22:38:08.085Z,8.57
2023-03-21T22:40:37.510Z,9.13
2023-03-21T22:43:08.277Z,9.17
2023-03-21T22:45:38.735Z,9.70
2023-03-21T22:48:07.845Z,9.23
2023-03-21T22:50:36.912Z,9.57
2023-03-21T22:53:06.101Z,8.50
2023-03-21T22:55:35.226Z,8.90
2023-03-21T22:58:04.359Z,9.33
2023-03-21T23:00:34.611Z,8.33
2023-03-21T23:03:05.023Z,8.73
2023-03-21T23:05:34.209Z,9.37
2023-03-21T23:08:03.478Z,8.93
2023-03-21T23:10:32.578Z,9.37
2023-03-21T23:13:01.579Z,9.57
2023-03-21T23:15:30.621Z,8.80
2023-03-21T23:17:59.673Z,8.23
2023-03-21T23:20:30.200Z,10.10
2023-03-21T23:22:59.403Z,9.27
2023-03-21T23:25:30.287Z,9.07
2023-03-21T23:27:59.335Z,9.23
2023-03-21T23:30:28.384Z,8.80
2023-03-21T23:32:57.633Z,8.83
2023-03-21T23:35:26.740Z,8.43
2023-03-21T23:37:57.120Z,8.03
2023-03-21T23:40:26.191Z,8.37
2023-03-21T23:42:55.697Z,9.87
2023-03-21T23:45:24.731Z,8.43
2023-03-21T23:47:55.956Z,7.83
2023-03-21T23:50:27.512Z,7.50
2023-03-21T23:52:57.947Z,8.80
2023-03-21T23:55:26.974Z,8.03
2023-03-21T23:57:59.236Z,9.00
